Time;durP1;ratioP1;P1;durP2;ratioP2;P2;SDS_P1;SDS_P2;PMS_P1;PMS_P2;Temp;Humidity;BMP_temperature;BMP_pressure;BME280_temperature;BME280_humidity;BME280_pressure;Samples;Min_cycle;Max_cycle;Signal;HPM_P1;HPM_P2
2023/01/03 00:00:45;;;;;;;9.75;1.10;;;;;;;5.55;100.00;99935.06;4907726;29;20041;-83
2023/01/03 00:03:16;;;;;;;5.85;0.70;;;;;;;5.58;100.00;99928.72;4904261;29;20161;-81
2023/01/03 00:05:48;;;;;;;8.48;0.93;;;;;;;5.70;100.00;99926.91;4901355;29;20136;-82
2023/01/03 00:08:14;;;;;;;8.45;1.35;;;;;;;5.71;100.00;99916.31;4904270;29;20036;-83
2023/01/03 00:10:40;;;;;;;9.63;1.73;;;;;;;5.82;100.00;99909.31;4877624;29;20051;-84
2023/01/03 00:13:07;;;;;;;9.23;0.73;;;;;;;5.87;100.00;99908.94;4881487;29;20118;-82
2023/01/03 00:15:34;;;;;;;5.93;1.23;;;;;;;5.95;100.00;99904.75;4901918;29;20051;-82
2023/01/03 00:18:00;;;;;;;5.47;0.80;;;;;;;6.00;100.00;99898.28;4885709;29;20051;-84
2023/01/03 00:20:26;;;;;;;9.73;1.10;;;;;;;6.04;100.00;99886.53;4898113;29;20362;-83
2023/01/03 00:22:52;;;;;;;8.15;0.60;;;;;;;6.13;100.00;99893.69;4893833;29;20047;-82
2023/01/03 00:25:18;;;;;;;7.25;1.50;;;;;;;6.25;100.00;99880.47;4908950;29;20114;-81
2023/01/03 00:27:43;;;;;;;7.50;1.13;;;;;;;6.27;100.00;99866.28;4906944;29;20507;-83
2023/01/03 00:30:10;;;;;;;12.25;1.55;;;;;;;6.38;100.00;99861.91;4873671;29;20040;-82
2023/01/03 00:32:35;;;;;;;8.90;1.70;;;;;;;6.39;100.00;99855.69;4904444;29;20029;-82
2023/01/03 00:35:01;;;;;;;8.25;1.00;;;;;;;6.46;100.00;99851.59;4888621;29;21625;-82
2023/01/03 00:37:27;;;;;;;7.00;0.82;;;;;;;6.49;100.00;99846.06;4890584;29;20523;-82
2023/01/03 00:39:52;;;;;;;6.55;0.98;;;;;;;6.54;100.00;99848.28;4895603;29;20043;-81
2023/01/03 00:42:18;;;;;;;10.93;1.20;;;;;;;6.56;100.00;99830.63;4876306;29;20748;-82
2023/01/03 00:44:44;;;;;;;14.55;1.80;;;;;;;6.57;100.00;99825.22;4905890;29;20047;-81
2023/01/03 00:47:10;;;;;;;12.80;1.08;;;;;;;6.61;100.00;99824.97;4894866;29;20119;-82
2023/01/03 00:49:37;;;;;;;10.35;1.02;;;;;;;6.62;100.00;99824.00;4908458;29;20381;-81
2023/01/03 00:52:03;;;;;;;9.25;1.10;;;;;;;6.65;100.00;99824.56;4910645;29;20060;-82
2023/01/03 00:54:28;;;;;;;12.25;1.13;;;;;;;6.67;100.00;99830.50;4866462;29;20071;-82
2023/01/03 00:56:55;;;;;;;7.00;1.08;;;;;;;6.67;100.00;99820.00;4895266;29;20055;-82
2023/01/03 00:59:21;;;;;;;8.82;1.13;;;;;;;6.69;100.00;99828.56;4905177;29;20054;-81
2023/01/03 01:01:53;;;;;;;14.38;1.75;;;;;;;6.73;100.00;99817.78;4892886;29;20405;-82
2023/01/03 01:04:28;;;;;;;8.45;0.88;;;;;;;6.73;100.00;99812.53;4904139;29;20042;-82
2023/01/03 01:06:58;;;;;;;8.38;0.98;;;;;;;6.79;100.00;99790.97;4906839;29;20032;-83
2023/01/03 01:09:26;;;;;;;14.60;1.83;;;;;;;6.82;100.00;99790.72;4897842;29;20037;-84
2023/01/03 01:11:53;;;;;;;11.88;1.55;;;;;;;6.81;100.00;99768.03;4904569;29;20038;-83
2023/01/03 01:14:22;;;;;;;12.15;1.13;;;;;;;6.82;100.00;99760.03;4902945;29;20048;-80
2023/01/03 01:16:47;;;;;;;9.55;0.93;;;;;;;6.81;100.00;99753.13;4899501;29;20049;-83
2023/01/03 01:19:14;;;;;;;8.88;1.02;;;;;;;6.79;100.00;99748.97;4907071;29;20171;-85
2023/01/03 01:21:40;;;;;;;13.13;1.27;;;;;;;6.81;100.00;99732.13;4910359;29;20077;-83
2023/01/03 01:24:06;;;;;;;9.20;1.48;;;;;;;6.80;100.00;99708.59;4902692;29;20445;-83
2023/01/03 01:26:32;;;;;;;10.60;1.45;;;;;;;6.84;100.00;99696.84;4903321;29;20127;-81
2023/01/03 01:28:58;;;;;;;15.60;2.30;;;;;;;6.84;100.00;99681.09;4901555;29;20083;-82
2023/01/03 01:31:25;;;;;;;8.02;1.02;;;;;;;6.86;100.00;99694.09;4888577;29;20043;-82
2023/01/03 01:33:53;;;;;;;4.55;0.70;;;;;;;6.89;100.00;99680.66;4889517;29;20127;-82
2023/01/03 01:36:22;;;;;;;7.20;1.15;;;;;;;6.91;100.00;99676.13;4890291;29;20043;-84
2023/01/03 01:38:53;;;;;;;9.98;1.30;;;;;;;6.94;100.00;99675.84;4877314;29;20139;-80
2023/01/03 01:44:36;;;;;;;8.23;0.98;;;;;;;6.92;100.00;99662.84;4897322;29;20103;-83
2023/01/03 01:46:51;;;;;;;10.55;1.38;;;;;;;6.95;100.00;99644.16;4900314;29;20036;-84
2023/01/03 01:49:22;;;;;;;10.48;1.23;;;;;;;7.03;100.00;99635.56;4900309;29;20044;-85
2023/01/03 01:51:48;;;;;;;12.25;1.45;;;;;;;7.01;100.00;99616.47;4888564;29;20119;-83
2023/01/03 01:54:15;;;;;;;4.35;1.13;;;;;;;7.05;100.00;99602.13;4886557;29;20047;-82
2023/01/03 01:56:48;;;;;;;11.25;1.10;;;;;;;7.06;100.00;99601.13;4909477;29;20116;-80
2023/01/03 01:59:14;;;;;;;10.90;1.40;;;;;;;7.06;100.00;99593.25;4876471;29;20036;-83
2023/01/03 02:01:43;;;;;;;9.30;0.90;;;;;;;7.07;100.00;99563.38;4892450;29;20044;-85
2023/01/03 02:04:29;;;;;;;6.40;0.90;;;;;;;7.09;100.00;99567.66;4909349;29;20383;-84
2023/01/03 02:06:56;;;;;;;5.80;0.50;;;;;;;7.11;100.00;99570.97;4887323;29;20032;-79
2023/01/03 02:09:22;;;;;;;9.20;1.63;;;;;;;7.08;100.00;99553.69;4906426;29;20039;-83
2023/01/03 02:15:26;;;;;;;3.78;0.50;;;;;;;7.15;100.00;99506.66;4900262;29;20425;-86
2023/01/03 02:18:07;;;;;;;3.42;0.40;;;;;;;7.18;100.00;99528.19;4896348;29;20072;-85
2023/01/03 02:20:36;;;;;;;3.80;0.77;;;;;;;7.16;100.00;99527.53;4900956;29;20055;-86
2023/01/03 02:23:11;;;;;;;6.18;0.90;;;;;;;7.23;100.00;99516.44;4899577;29;20044;-86
2023/01/03 02:26:01;;;;;;;2.78;0.70;;;;;;;7.25;100.00;99511.81;4893885;29;20037;-86
2023/01/03 02:28:56;;;;;;;2.85;0.40;;;;;;;7.25;100.00;99517.09;4893779;29;20067;-83
2023/01/03 02:31:25;;;;;;;2.58;0.40;;;;;;;7.27;100.00;99505.47;4909242;29;20468;-82
2023/01/03 02:34:02;;;;;;;1.88;0.38;;;;;;;7.31;100.00;99506.03;4910891;29;20036;-82
2023/01/03 02:36:52;;;;;;;1.52;0.30;;;;;;;7.35;100.00;99498.66;4878037;29;20130;-82
2023/01/03 02:39:27;;;;;;;4.28;0.52;;;;;;;7.40;100.00;99499.03;4908096;29;20444;-83
2023/01/03 02:42:56;;;;;;;2.15;0.30;;;;;;;7.40;100.00;99504.31;4887378;29;20377;-83
2023/01/03 02:44:55;;;;;;;5.97;0.40;;;;;;;7.45;100.00;99492.34;4901517;29;20087;-84
2023/01/03 02:47:25;;;;;;;1.92;0.28;;;;;;;7.49;100.00;99489.44;4875608;29;20043;-83
2023/01/03 02:49:52;;;;;;;2.33;0.30;;;;;;;7.49;100.00;99487.63;4915641;29;20091;-83
2023/01/03 02:52:26;;;;;;;1.73;0.40;;;;;;;7.61;100.00;99475.13;4918220;29;20040;-83
2023/01/03 02:55:18;;;;;;;3.78;0.20;;;;;;;7.62;100.00;99487.28;4883324;29;20123;-84
2023/01/03 02:58:16;;;;;;;3.70;0.30;;;;;;;7.64;100.00;99482.72;4886669;29;20048;-83
2023/01/03 03:00:50;;;;;;;0.30;0.15;;;;;;;7.65;100.00;99479.09;4909591;29;20039;-83
2023/01/03 03:03:20;;;;;;;1.85;0.30;;;;;;;7.68;100.00;99483.22;4919700;29;20083;-83
2023/01/03 03:05:54;;;;;;;2.00;0.20;;;;;;;7.74;100.00;99479.97;4910516;29;20077;-83
2023/01/03 03:08:22;;;;;;;2.97;0.20;;;;;;;7.74;100.00;99479.19;4883869;29;20131;-84
2023/01/03 03:13:43;;;;;;;4.25;0.20;;;;;;;7.86;100.00;99500.81;4903081;29;20507;-83
2023/01/03 03:16:47;;;;;;;1.35;0.20;;;;;;;7.91;100.00;99503.84;4918486;29;20036;-83
2023/01/03 03:25:49;;;;;;;3.50;0.50;;;;;;;8.19;100.00;99509.84;4917340;28;20055;-83
2023/01/03 03:28:36;;;;;;;5.68;0.40;;;;;;;8.26;100.00;99509.22;4910115;29;20032;-82
2023/01/03 03:31:14;;;;;;;2.53;0.43;;;;;;;8.29;100.00;99516.81;4897348;29;20064;-84
2023/01/03 03:33:55;;;;;;;2.47;0.20;;;;;;;8.37;100.00;99508.16;4908723;29;20036;-83
2023/01/03 03:36:37;;;;;;;2.50;0.22;;;;;;;8.40;100.00;99515.75;4908711;29;20032;-85
2023/01/03 03:39:05;;;;;;;2.90;0.60;;;;;;;8.41;100.00;99518.22;4893088;29;20033;-84
2023/01/03 03:45:02;;;;;;;2.97;0.28;;;;;;;8.40;100.00;99513.13;4911189;29;20032;-83
2023/01/03 03:47:46;;;;;;;2.20;0.20;;;;;;;8.40;100.00;99513.94;4901724;29;20052;-83
2023/01/03 03:50:46;;;;;;;1.33;0.30;;;;;;;8.43;100.00;99528.59;4932515;29;20127;-83
2023/01/03 03:53:15;;;;;;;1.27;0.20;;;;;;;8.40;100.00;99534.19;4891480;29;20028;-83
2023/01/03 03:55:49;;;;;;;4.93;0.30;;;;;;;8.41;100.00;99539.28;4895925;29;20043;-83
2023/01/03 03:58:19;;;;;;;1.70;0.20;;;;;;;8.43;100.00;99553.13;4868020;29;20426;-84
2023/01/03 04:00:48;;;;;;;3.92;0.30;;;;;;;8.44;100.00;99551.34;4892925;29;20039;-83
2023/01/03 04:03:17;;;;;;;1.38;0.20;;;;;;;8.40;100.00;99560.50;4913318;29;20151;-83
2023/01/03 04:05:49;;;;;;;2.28;0.20;;;;;;;8.41;100.00;99559.53;4907476;29;20032;-84
2023/01/03 04:08:15;;;;;;;3.95;0.30;;;;;;;8.37;100.00;99566.09;4919353;29;20031;-84
2023/01/03 04:10:42;;;;;;;3.08;0.50;;;;;;;8.37;100.00;99566.91;4910910;29;20794;-84
2023/01/03 04:13:08;;;;;;;3.65;0.30;;;;;;;8.36;100.00;99578.41;4894863;29;20409;-83
2023/01/03 04:15:33;;;;;;;1.13;0.20;;;;;;;8.35;100.00;99587.31;4889403;29;20052;-83
2023/01/03 04:18:01;;;;;;;3.45;0.32;;;;;;;8.34;100.00;99588.28;4895276;29;20044;-85
2023/01/03 04:20:27;;;;;;;2.47;0.45;;;;;;;8.30;100.00;99589.56;4889534;29;20385;-85
2023/01/03 04:22:53;;;;;;;5.55;0.45;;;;;;;8.27;100.00;99593.31;4902938;29;20035;-86
2023/01/03 04:25:19;;;;;;;1.85;0.30;;;;;;;8.25;100.00;99599.72;4888169;29;20135;-83
2023/01/03 04:27:46;;;;;;;1.33;0.30;;;;;;;8.24;100.00;99606.78;4878971;29;20031;-84
2023/01/03 04:30:14;;;;;;;4.38;0.38;;;;;;;8.22;100.00;99606.09;4918964;29;20075;-83
2023/01/03 04:32:39;;;;;;;2.05;0.20;;;;;;;8.17;100.00;99606.53;4915173;29;20044;-82
2023/01/03 04:35:06;;;;;;;3.45;0.40;;;;;;;8.16;100.00;99604.06;4896455;29;20032;-82
2023/01/03 04:37:32;;;;;;;7.57;1.05;;;;;;;8.13;100.00;99599.94;4887671;29;20468;-82
2023/01/03 04:39:58;;;;;;;4.40;0.77;;;;;;;8.12;100.00;99606.16;4898256;29;20408;-83
2023/01/03 04:45:10;;;;;;;5.20;0.63;;;;;;;8.07;100.00;99601.34;4891783;29;20041;-82
2023/01/03 04:47:36;;;;;;;6.50;0.63;;;;;;;8.03;100.00;99602.63;4911481;29;20036;-82
2023/01/03 04:50:02;;;;;;;4.85;0.63;;;;;;;8.03;100.00;99604.44;4882751;29;20047;-82
2023/01/03 04:52:28;;;;;;;3.22;0.50;;;;;;;8.02;100.00;99606.25;4896500;29;20553;-82
2023/01/03 04:54:54;;;;;;;4.88;0.40;;;;;;;8.03;100.00;99609.69;4909271;29;20060;-82
2023/01/03 04:57:20;;;;;;;6.70;0.52;;;;;;;8.02;100.00;99603.63;4924291;29;20036;-84
2023/01/03 04:59:48;;;;;;;5.25;0.52;;;;;;;8.03;100.00;99607.91;4902661;29;20094;-84
2023/01/03 05:02:14;;;;;;;15.65;0.90;;;;;;;8.03;100.00;99610.53;4899059;29;20567;-83
2023/01/03 05:04:40;;;;;;;7.18;0.50;;;;;;;8.02;100.00;99608.03;4903796;29;20036;-84
2023/01/03 05:07:06;;;;;;;2.22;0.40;;;;;;;8.02;100.00;99608.88;4879129;29;20026;-81
2023/01/03 05:09:33;;;;;;;14.52;1.20;;;;;;;8.01;100.00;99615.09;4905590;29;20099;-82
2023/01/03 05:12:00;;;;;;;9.27;0.57;;;;;;;8.02;100.00;99611.50;4910860;29;20044;-82
2023/01/03 05:14:26;;;;;;;6.78;0.70;;;;;;;8.02;100.00;99618.56;4899079;29;20063;-82
2023/01/03 05:16:52;;;;;;;6.50;0.98;;;;;;;8.02;100.00;99618.56;4882464;29;20036;-82
2023/01/03 05:19:19;;;;;;;7.78;0.80;;;;;;;8.00;100.00;99613.47;4889377;29;20499;-82
2023/01/03 05:27:13;;;;;;;5.88;0.52;;;;;;;7.98;100.00;99623.28;4908721;29;20036;-82
2023/01/03 05:29:39;;;;;;;4.97;0.55;;;;;;;7.98;100.00;99623.28;4879055;29;20040;-80
2023/01/03 05:32:05;;;;;;;1.88;0.43;;;;;;;7.96;100.00;99617.38;4883608;29;20493;-84
2023/01/03 05:34:31;;;;;;;5.10;0.60;;;;;;;7.97;100.00;99610.28;4892113;29;20077;-84
2023/01/03 05:36:57;;;;;;;6.65;0.65;;;;;;;7.96;100.00;99611.28;4908814;29;20045;-82
2023/01/03 05:39:23;;;;;;;5.72;0.90;;;;;;;7.96;100.00;99617.38;4889260;29;20039;-82
2023/01/03 05:42:01;;;;;;;5.05;0.63;;;;;;;7.96;100.00;99609.47;4904348;29;20054;-82
2023/01/03 05:44:33;;;;;;;10.57;0.95;;;;;;;7.96;100.00;99612.09;4915584;29;20070;-83
2023/01/03 05:47:01;;;;;;;6.38;1.33;;;;;;;7.95;100.00;99623.59;4876187;29;20032;-82
2023/01/03 05:49:27;;;;;;;16.45;1.20;;;;;;;7.93;100.00;99625.56;4905624;29;20492;-82
2023/01/03 05:51:53;;;;;;;13.68;1.30;;;;;;;7.92;100.00;99613.34;4894693;29;20080;-82
2023/01/03 05:54:29;;;;;;;18.52;1.88;;;;;;;7.91;100.00;99617.81;4857184;23;20057;-83
2023/01/03 05:56:55;;;;;;;15.20;2.00;;;;;;;7.91;100.00;99627.50;4863136;29;20049;-84
2023/01/03 05:59:21;;;;;;;23.58;1.80;;;;;;;7.89;100.00;99622.38;4852583;29;20041;-82
2023/01/03 06:01:51;;;;;;;18.95;2.15;;;;;;;7.92;100.00;99627.34;4852712;29;20057;-83
2023/01/03 06:04:17;;;;;;;21.23;2.20;;;;;;;7.88;100.00;99622.53;4880035;29;20088;-82
2023/01/03 06:06:43;;;;;;;21.17;2.17;;;;;;;7.87;100.00;99626.16;4874596;29;20077;-82
2023/01/03 06:09:13;;;;;;;18.60;2.22;;;;;;;7.88;100.00;99612.84;4859257;29;20508;-82
2023/01/03 06:11:39;;;;;;;17.00;1.33;;;;;;;7.82;100.00;99611.63;4876255;29;20048;-82
2023/01/03 06:14:09;;;;;;;25.90;2.60;;;;;;;7.86;100.00;99608.69;4883638;29;20036;-82
2023/01/03 06:19:20;;;;;;;17.77;2.47;;;;;;;7.85;100.00;99615.75;4870964;29;20048;-82
2023/01/03 06:21:48;;;;;;;17.00;2.40;;;;;;;7.82;100.00;99616.03;4849132;29;20153;-82
2023/01/03 06:24:15;;;;;;;20.20;3.08;;;;;;;7.85;100.00;99617.56;4874032;29;20141;-82
2023/01/03 06:26:41;;;;;;;26.17;2.83;;;;;;;7.81;100.00;99615.22;4855914;29;20149;-81
2023/01/03 06:29:08;;;;;;;24.70;3.47;;;;;;;7.86;100.00;99619.22;4873691;29;20470;-81
2023/01/03 06:31:35;;;;;;;31.73;3.25;;;;;;;7.81;100.00;99603.88;4880700;29;20043;-82
2023/01/03 06:34:03;;;;;;;23.77;3.25;;;;;;;7.83;100.00;99612.44;4880447;29;20029;-83
2023/01/03 06:36:32;;;;;;;25.80;3.67;;;;;;;7.84;100.00;99611.47;4869085;29;20048;-83
2023/01/03 06:39:00;;;;;;;35.95;3.70;;;;;;;7.86;100.00;99609.53;4884353;29;20557;-80
2023/01/03 06:41:27;;;;;;;34.67;3.22;;;;;;;7.81;100.00;99607.34;4879327;29;20049;-82
2023/01/03 06:43:53;;;;;;;26.10;3.00;;;;;;;7.83;100.00;99604.56;4912243;23;20052;-82
2023/01/03 06:55:01;;;;;;;37.40;3.67;;;;;;;7.77;100.00;99589.38;4898431;29;20259;-84
2023/01/03 06:57:27;;;;;;;31.30;3.20;;;;;;;7.79;100.00;99604.00;4900597;29;20388;-84
2023/01/03 06:59:56;;;;;;;29.05;4.07;;;;;;;7.80;100.00;99595.13;4904621;29;20040;-82
2023/01/03 07:02:22;;;;;;;29.02;3.88;;;;;;;7.78;100.00;99591.00;4895083;29;20043;-82
2023/01/03 07:04:48;;;;;;;35.33;3.75;;;;;;;7.75;100.00;99586.03;4881594;29;20033;-82
2023/01/03 07:07:16;;;;;;;33.38;2.85;;;;;;;7.77;100.00;99595.44;4883562;29;20040;-82
2023/01/03 07:09:45;;;;;;;40.25;3.80;;;;;;;7.77;100.00;99577.03;4925018;29;20100;-82
2023/01/03 07:14:55;;;;;;;40.53;4.72;;;;;;;7.74;100.00;99568.63;4897759;29;20036;-82
2023/01/03 07:17:22;;;;;;;36.50;4.13;;;;;;;7.75;100.00;99567.63;4911805;29;20488;-82
2023/01/03 07:19:48;;;;;;;39.58;5.38;;;;;;;7.76;100.00;99574.53;4872281;29;20067;-82
2023/01/03 07:22:15;;;;;;;28.83;3.83;;;;;;;7.79;100.00;99561.94;4887626;29;20639;-82
2023/01/03 07:24:41;;;;;;;36.97;4.57;;;;;;;7.77;100.00;99569.13;4878939;29;20058;-82
2023/01/03 07:27:07;;;;;;;25.15;3.25;;;;;;;7.76;100.00;99561.38;4884184;29;20028;-82
2023/01/03 07:29:33;;;;;;;27.23;3.53;;;;;;;7.77;100.00;99560.44;4902654;29;20040;-84
2023/01/03 07:31:59;;;;;;;28.45;3.70;;;;;;;7.74;100.00;99558.91;4870037;29;20115;-84
2023/01/03 07:34:29;;;;;;;21.45;2.70;;;;;;;7.75;100.00;99549.22;4887581;29;22385;-84
2023/01/03 07:36:55;;;;;;;28.40;3.15;;;;;;;7.75;100.00;99559.75;4889839;29;20051;-84
2023/01/03 07:39:21;;;;;;;23.35;2.83;;;;;;;7.73;100.00;99551.16;4877587;29;20032;-84
2023/01/03 07:44:33;;;;;;;26.15;3.33;;;;;;;7.77;100.00;99547.28;4895547;29;20493;-84
2023/01/03 07:47:02;;;;;;;15.50;2.30;;;;;;;7.72;100.00;99537.19;4836931;29;20173;-83
2023/01/03 07:49:28;;;;;;;23.75;2.45;;;;;;;7.71;100.00;99535.53;4880858;29;20168;-84
2023/01/03 07:51:55;;;;;;;19.25;2.30;;;;;;;7.75;100.00;99522.91;4881417;29;20127;-84
2023/01/03 07:54:27;;;;;;;13.45;2.08;;;;;;;7.79;100.00;99513.72;4880479;29;20047;-84
2023/01/03 07:56:54;;;;;;;17.33;2.38;;;;;;;7.75;100.00;99510.59;4895051;29;20515;-84
2023/01/03 07:59:19;;;;;;;15.38;1.80;;;;;;;7.75;100.00;99496.59;4896223;29;20128;-84
2023/01/03 08:01:49;;;;;;;22.63;2.80;;;;;;;7.75;100.00;99500.06;4870998;29;20061;-84
2023/01/03 08:04:18;;;;;;;27.17;2.10;;;;;;;7.77;100.00;99500.72;4894247;29;20033;-84
2023/01/03 08:06:44;;;;;;;16.90;2.13;;;;;;;7.77;100.00;99498.09;4885217;29;20537;-84
2023/01/03 08:14:40;;;;;;;14.02;1.80;;;;;;;7.77;100.00;99489.41;4895604;29;20032;-84
2023/01/03 08:17:06;;;;;;;19.77;2.20;;;;;;;7.78;100.00;99494.50;4893573;29;20036;-84
2023/01/03 08:19:33;;;;;;;17.98;2.10;;;;;;;7.79;100.00;99490.06;4899293;29;20861;-84
2023/01/03 08:21:59;;;;;;;22.15;2.90;;;;;;;7.80;100.00;99474.13;4898311;29;20036;-84
2023/01/03 08:24:25;;;;;;;17.83;2.70;;;;;;;7.81;100.00;99475.78;4901118;29;20036;-84
2023/01/03 08:26:51;;;;;;;16.40;1.90;;;;;;;7.84;100.00;99465.94;4882091;29;20036;-84
2023/01/03 08:29:17;;;;;;;24.80;3.22;;;;;;;7.87;100.00;99461.19;4903044;29;20036;-84
2023/01/03 08:31:54;;;;;;;16.58;2.33;;;;;;;7.91;100.00;99462.56;4867020;29;20036;-84
2023/01/03 08:34:23;;;;;;;21.20;2.45;;;;;;;7.94;100.00;99456.16;4862658;29;20389;-84
2023/01/03 08:36:55;;;;;;;23.77;2.85;;;;;;;7.97;100.00;99460.28;4894162;29;20492;-84
2023/01/03 08:39:26;;;;;;;22.35;3.33;;;;;;;7.96;100.00;99441.06;4887562;29;20041;-84
2023/01/03 08:41:58;;;;;;;21.35;2.00;;;;;;;8.00;100.00;99452.09;4861338;29;20037;-84
2023/01/03 08:44:24;;;;;;;16.25;2.47;;;;;;;8.02;100.00;99440.44;4911387;29;20068;-84
2023/01/03 08:46:53;;;;;;;20.50;2.47;;;;;;;8.06;100.00;99430.44;4888508;29;20035;-84
2023/01/03 08:49:20;;;;;;;12.95;2.03;;;;;;;8.06;100.00;99435.69;4897164;29;20147;-84
2023/01/03 08:51:46;;;;;;;25.80;3.00;;;;;;;8.07;100.00;99432.91;4896031;29;20448;-84
2023/01/03 08:54:11;;;;;;;19.98;1.85;;;;;;;8.10;100.00;99431.78;4886689;29;20040;-84
2023/01/03 08:56:38;;;;;;;13.93;2.15;;;;;;;8.13;100.00;99425.38;4887813;29;20079;-84
2023/01/03 08:59:04;;;;;;;11.30;1.67;;;;;;;8.16;100.00;99419.81;4885280;29;20049;-83
2023/01/03 09:01:37;;;;;;;15.20;1.77;;;;;;;8.18;100.00;99423.97;5168842;27;20558;-82
2023/01/03 09:04:04;;;;;;;15.65;1.75;;;;;;;8.24;100.00;99424.31;5118905;27;20032;-82
2023/01/03 09:06:30;;;;;;;11.80;2.05;;;;;;;8.25;100.00;99418.06;5120375;27;20038;-84
2023/01/03 09:08:56;;;;;;;17.20;2.35;;;;;;;8.27;100.00;99414.28;5109604;27;20030;-84
2023/01/03 09:11:21;;;;;;;15.50;2.03;;;;;;;8.27;100.00;99408.19;5094211;27;20028;-83
2023/01/03 09:13:47;;;;;;;11.65;1.50;;;;;;;8.25;100.00;99404.91;5112296;27;20043;-83
2023/01/03 09:16:15;;;;;;;15.45;1.90;;;;;;;8.30;100.00;99407.88;5116745;27;20019;-83
2023/01/03 09:18:41;;;;;;;7.65;0.98;;;;;;;8.30;100.00;99392.91;5084250;27;20037;-84
2023/01/03 09:21:07;;;;;;;14.02;1.70;;;;;;;8.32;100.00;99390.97;5093949;27;20135;-83
2023/01/03 09:23:34;;;;;;;10.20;1.45;;;;;;;8.36;100.00;99390.66;5113425;27;20470;-83
2023/01/03 09:26:01;;;;;;;11.30;1.38;;;;;;;8.36;100.00;99385.38;5096213;27;20042;-83
2023/01/03 09:28:27;;;;;;;11.60;1.30;;;;;;;8.37;100.00;99377.34;5110390;27;20046;-84
2023/01/03 09:30:53;;;;;;;13.20;1.60;;;;;;;8.38;100.00;99372.88;5130114;27;20039;-83
2023/01/03 09:33:20;;;;;;;14.55;1.80;;;;;;;8.35;100.00;99362.66;5134544;27;20041;-83
2023/01/03 09:35:46;;;;;;;17.15;2.05;;;;;;;8.32;100.00;99367.28;5131850;27;20035;-83
2023/01/03 09:38:12;;;;;;;11.25;1.10;;;;;;;8.28;100.00;99365.91;5128915;27;20031;-84
2023/01/03 09:40:44;;;;;;;16.00;1.92;;;;;;;8.29;100.00;99357.06;5104877;27;20038;-84
2023/01/03 09:43:21;;;;;;;18.00;2.30;;;;;;;8.28;100.00;99355.38;5114616;27;20035;-83
2023/01/03 09:45:57;;;;;;;11.77;1.83;;;;;;;8.27;100.00;99355.53;5116517;27;21779;-84
2023/01/03 09:48:36;;;;;;;15.00;1.52;;;;;;;8.29;100.00;99345.69;5109333;27;20489;-84
2023/01/03 10:03:42;;;;;;;9.75;1.42;;;;;;;8.29;100.00;99332.53;5092047;27;20047;-83
2023/01/03 10:05:37;;;;;;;14.20;1.83;;;;;;;8.44;100.00;99303.81;5113284;27;20455;-83
2023/01/03 10:08:20;;;;;;;10.45;1.20;;;;;;;8.50;100.00;99302.34;5089967;27;20066;-83
2023/01/03 10:11:06;;;;;;;14.38;1.65;;;;;;;8.59;100.00;99287.41;5093738;27;20122;-84
2023/01/03 10:13:35;;;;;;;13.00;1.58;;;;;;;8.55;100.00;99284.28;5093809;27;20359;-83
2023/01/03 10:16:33;;;;;;;13.02;1.60;;;;;;;8.61;100.00;99288.91;5089428;27;20063;-84
2023/01/03 10:19:13;;;;;;;12.02;1.38;;;;;;;8.61;100.00;99286.28;5079444;27;20038;-83
2023/01/03 10:22:00;;;;;;;14.98;1.80;;;;;;;8.67;100.00;99272.47;5101780;27;20125;-83
2023/01/03 10:24:49;;;;;;;12.48;1.77;;;;;;;8.66;100.00;99280.53;5128135;27;20494;-83
2023/01/03 10:27:18;;;;;;;13.43;1.35;;;;;;;8.68;100.00;99282.00;5089977;27;20035;-83
2023/01/03 10:29:45;;;;;;;10.27;1.33;;;;;;;8.72;100.00;99279.88;5092460;27;20042;-84
2023/01/03 10:32:26;;;;;;;7.20;1.00;;;;;;;8.75;100.00;99276.09;5092257;27;20042;-84
2023/01/03 10:35:16;;;;;;;6.93;0.85;;;;;;;8.76;100.00;99260.13;5133123;27;20105;-83
2023/01/03 10:37:44;;;;;;;7.90;0.95;;;;;;;8.76;100.00;99254.84;5096395;27;20464;-83
2023/01/03 10:40:11;;;;;;;7.38;0.75;;;;;;;8.80;100.00;99248.28;5080893;27;20047;-83
2023/01/03 10:42:38;;;;;;;6.70;0.70;;;;;;;8.83;100.00;99247.13;5091063;27;20393;-84
2023/01/03 10:45:14;;;;;;;4.75;0.50;;;;;;;8.89;100.00;99250.91;5081670;27;20024;-83
2023/01/03 10:47:40;;;;;;;6.80;0.77;;;;;;;8.88;100.00;99262.44;5090479;27;20031;-83
2023/01/03 10:50:18;;;;;;;2.97;0.35;;;;;;;8.92;100.00;99263.75;5130642;27;20038;-84
2023/01/03 10:52:44;;;;;;;3.15;0.40;;;;;;;8.92;100.00;99242.69;5057067;27;20114;-83
2023/01/03 10:55:17;;;;;;;1.35;0.20;;;;;;;9.01;100.00;99235.63;5090771;27;20043;-84
2023/01/03 10:58:14;;;;;;;2.38;0.30;;;;;;;9.08;100.00;99239.22;5110333;27;20030;-83
2023/01/03 11:00:41;;;;;;;1.55;0.20;;;;;;;9.08;100.00;99227.88;5085671;28;20040;-83
2023/01/03 11:03:16;;;;;;;2.15;0.13;;;;;;;9.14;100.00;99222.75;5089331;28;20050;-83
2023/01/03 11:05:45;;;;;;;1.48;0.30;;;;;;;9.20;100.00;99216.00;5085401;28;20046;-83
2023/01/03 11:08:22;;;;;;;0.70;0.20;;;;;;;9.25;100.00;99215.50;5108996;28;20027;-84
2023/01/03 11:10:48;;;;;;;2.45;0.30;;;;;;;9.27;100.00;99209.06;5082347;28;20040;-83
2023/01/03 11:13:26;;;;;;;2.05;0.17;;;;;;;9.30;100.00;99198.19;5071134;27;20164;-83
2023/01/03 11:15:57;;;;;;;0.65;0.20;;;;;;;9.35;100.00;99194.25;5115371;27;20062;-83
2023/01/03 11:18:26;;;;;;;0.17;0.10;;;;;;;9.35;100.00;99200.31;5102650;28;20035;-83
2023/01/03 11:21:13;;;;;;;2.38;0.20;;;;;;;9.37;100.00;99210.72;5108117;28;20028;-82
2023/01/03 11:23:57;;;;;;;;;;;;;;;9.33;100.00;99223.41;5092159;27;20038;-83
2023/01/03 11:26:55;;;;;;;0.90;0.20;;;;;;;9.40;100.00;99205.94;5067943;28;19916;-83
2023/01/03 11:29:50;;;;;;;2.08;0.10;;;;;;;9.48;100.00;99212.16;5081245;27;20034;-83
2023/01/03 11:32:28;;;;;;;0.60;0.08;;;;;;;9.47;100.00;99214.00;5103676;28;20501;-83
2023/01/03 11:35:18;;;;;;;1.35;0.00;;;;;;;9.50;100.00;99207.56;5107187;28;20057;-83
2023/01/03 11:38:02;;;;;;;4.32;0.57;;;;;;;9.50;100.00;99203.13;5122663;27;20110;-85
2023/01/03 11:40:48;;;;;;;1.10;0.30;;;;;;;9.59;100.00;99200.47;5084570;28;20415;-84
2023/01/03 11:43:43;;;;;;;1.58;0.40;;;;;;;9.62;100.00;99192.22;5067626;27;20372;-85
2023/01/03 11:46:32;;;;;;;2.55;0.35;;;;;;;9.68;100.00;99173.06;5083797;28;20505;-85
2023/01/03 11:49:07;;;;;;;1.20;0.15;;;;;;;9.76;100.00;99166.94;5088795;28;20118;-85
2023/01/03 11:51:51;;;;;;;2.67;0.40;;;;;;;9.82;100.00;99154.88;5109418;27;20019;-84
2023/01/03 11:54:54;;;;;;;0.90;0.08;;;;;;;9.88;100.00;99162.09;5103123;28;20040;-85
2023/01/03 11:57:33;;;;;;;2.47;1.35;;;;;;;9.92;100.00;99160.78;5100533;27;20053;-85
2023/01/03 12:00:20;;;;;;;0.80;0.35;;;;;;;10.01;100.00;99149.19;5103052;28;20536;-82
2023/01/03 12:03:45;;;;;;;2.08;0.77;;;;;;;10.09;100.00;99142.19;5087824;28;20057;-82
2023/01/03 12:06:41;;;;;;;1.77;0.35;;;;;;;10.15;100.00;99150.25;5006801;28;20440;-84
2023/01/03 12:09:16;;;;;;;;;;;;;;;10.15;100.00;99149.41;5067333;22;20059;-85
2023/01/03 12:11:57;;;;;;;1.30;0.30;;;;;;;10.28;100.00;99138.28;5081047;28;20389;-84
2023/01/03 12:14:28;;;;;;;1.20;0.30;;;;;;;10.32;100.00;99126.38;5064314;28;20484;-84
2023/01/03 12:17:14;;;;;;;0.85;0.20;;;;;;;10.35;100.00;99112.81;5042427;28;20220;-84
2023/01/03 12:19:59;;;;;;;3.00;0.10;;;;;;;10.37;100.00;99100.25;5065755;28;20038;-85
2023/01/03 12:22:38;;;;;;;1.08;0.50;;;;;;;10.43;100.00;99107.47;5056304;28;20036;-83
2023/01/03 12:25:28;;;;;;;2.28;0.20;;;;;;;10.47;100.00;99104.50;5081786;28;20507;-83
2023/01/03 12:28:09;;;;;;;3.35;1.00;;;;;;;10.53;100.00;99115.19;5081218;28;20043;-84
2023/01/03 12:30:42;;;;;;;0.82;0.70;;;;;;;10.57;100.00;99106.91;5056407;28;20028;-83
2023/01/03 12:33:15;;;;;;;2.40;1.98;;;;;;;10.56;100.00;99116.66;5078921;28;20031;-82
2023/01/03 12:35:50;;;;;;;4.55;1.08;;;;;;;10.61;100.00;99110.84;5082807;28;20094;-84
2023/01/03 12:38:26;;;;;;;2.67;1.20;;;;;;;10.63;100.00;99106.22;5061693;28;20036;-83
2023/01/03 12:41:32;;;;;;;3.15;1.58;;;;;;;10.65;100.00;99120.06;5085443;28;20777;-83
2023/01/03 12:44:12;;;;;;;3.90;2.20;;;;;;;10.67;100.00;99110.97;5073558;28;20032;-83
2023/01/03 12:46:46;;;;;;;6.85;2.85;;;;;;;10.70;100.00;99107.16;5084311;28;20020;-83
2023/01/03 12:49:32;;;;;;;3.10;1.83;;;;;;;10.73;100.00;99104.16;5085245;28;20028;-83
2023/01/03 12:51:58;;;;;;;;;;;;;;;10.70;100.00;99091.31;5085745;28;20479;-83